<?xml version="1.0" encoding="UTF-8" standalone="no" ?>
<gpx xmlns="http://www.topografix.com/GPX/1/1" xmlns:xsi="http://www.w3.org/2001/XMLSchema-instance" xsi:schemaLocation="http://www.topografix.com/GPX/1/1 http://www.topografix.com/GPX/1/1/gpx.xsd" version="1.1" creator="VisuGPX - https://www.visugpx.com">
  <metadata>
    <name>Bagnols -Pennafort -Fille d'Isnard</name>
    <desc><![CDATA[avec RA]]></desc>
  </metadata>
  <trk>
    <name><![CDATA[Bagnols -Pennafort -Fille d'Isnard_14]]></name>
    <extensions>
      <line xmlns="http://www.topografix.com/GPX/gpx_style/0/2">
        <color>00FF00</color>
        <width>4</width>
      </line>
    </extensions>
    <trkseg>
      <trkpt lat="43.55696" lon="6.7879">
        <ele>159.9</ele>
        <time>2025-10-24T06:12:59.000Z</time>
      </trkpt>
      <trkpt lat="43.55698" lon="6.78791">
        <ele>160.2</ele>
        <time>2025-10-24T06:13:00.000Z</time>
      </trkpt>
      <trkpt lat="43.557" lon="6.78793">
        <ele>160.3</ele>
        <time>2025-10-24T06:13:01.000Z</time>
      </trkpt>
      <trkpt lat="43.55701" lon="6.78794">
        <ele>160.3</ele>
        <time>2025-10-24T06:13:02.000Z</time>
      </trkpt>
      <trkpt lat="43.55703" lon="6.78796">
        <ele>160.2</ele>
        <time>2025-10-24T06:13:03.000Z</time>
      </trkpt>
      <trkpt lat="43.55704" lon="6.78798">
        <ele>160.2</ele>
        <time>2025-10-24T06:13:04.000Z</time>
      </trkpt>
      <trkpt lat="43.55705" lon="6.78801">
        <ele>160.1</ele>
        <time>2025-10-24T06:13:05.000Z</time>
      </trkpt>
      <trkpt lat="43.55705" lon="6.78804">
        <ele>160</ele>
        <time>2025-10-24T06:13:06.000Z</time>
      </trkpt>
      <trkpt lat="43.55706" lon="6.78808">
        <ele>159.9</ele>
        <time>2025-10-24T06:13:07.000Z</time>
      </trkpt>
      <trkpt lat="43.55706" lon="6.78812">
        <ele>159.8</ele>
        <time>2025-10-24T06:13:08.000Z</time>
      </trkpt>
      <trkpt lat="43.55707" lon="6.78816">
        <ele>159.8</ele>
        <time>2025-10-24T06:13:09.000Z</time>
      </trkpt>
      <trkpt lat="43.55707" lon="6.78821">
        <ele>159.7</ele>
        <time>2025-10-24T06:13:10.000Z</time>
      </trkpt>
      <trkpt lat="43.55708" lon="6.78825">
        <ele>159.6</ele>
        <time>2025-10-24T06:13:11.000Z</time>
      </trkpt>
      <trkpt lat="43.55708" lon="6.78829">
        <ele>159.5</ele>
        <time>2025-10-24T06:13:12.000Z</time>
      </trkpt>
      <trkpt lat="43.55709" lon="6.78833">
        <ele>159.4</ele>
        <time>2025-10-24T06:13:13.000Z</time>
      </trkpt>
      <trkpt lat="43.55709" lon="6.78837">
        <ele>159.3</ele>
        <time>2025-10-24T06:13:14.000Z</time>
      </trkpt>
      <trkpt lat="43.55708" lon="6.7884">
        <ele>159.2</ele>
        <time>2025-10-24T06:13:15.000Z</time>
      </trkpt>
      <trkpt lat="43.55708" lon="6.78844">
        <ele>159.1</ele>
        <time>2025-10-24T06:13:16.000Z</time>
      </trkpt>
      <trkpt lat="43.55707" lon="6.78847">
        <ele>159</ele>
        <time>2025-10-24T06:13:17.000Z</time>
      </trkpt>
      <trkpt lat="43.55706" lon="6.7885">
        <ele>159</ele>
        <time>2025-10-24T06:13:18.000Z</time>
      </trkpt>
      <trkpt lat="43.55705" lon="6.78853">
        <ele>158.9</ele>
        <time>2025-10-24T06:13:19.000Z</time>
      </trkpt>
      <trkpt lat="43.55704" lon="6.78857">
        <ele>158.8</ele>
        <time>2025-10-24T06:13:20.000Z</time>
      </trkpt>
      <trkpt lat="43.55702" lon="6.78861">
        <ele>158.6</ele>
        <time>2025-10-24T06:13:21.000Z</time>
      </trkpt>
      <trkpt lat="43.557" lon="6.78864">
        <ele>158.5</ele>
        <time>2025-10-24T06:13:22.000Z</time>
      </trkpt>
      <trkpt lat="43.55698" lon="6.78867">
        <ele>158.4</ele>
        <time>2025-10-24T06:13:23.000Z</time>
      </trkpt>
      <trkpt lat="43.55696" lon="6.7887">
        <ele>158.4</ele>
        <time>2025-10-24T06:13:24.000Z</time>
      </trkpt>
      <trkpt lat="43.55694" lon="6.78872">
        <ele>158.3</ele>
        <time>2025-10-24T06:13:25.000Z</time>
      </trkpt>
      <trkpt lat="43.55693" lon="6.78874">
        <ele>158.3</ele>
        <time>2025-10-24T06:13:26.000Z</time>
      </trkpt>
      <trkpt lat="43.55691" lon="6.78876">
        <ele>158.2</ele>
        <time>2025-10-24T06:13:27.000Z</time>
      </trkpt>
      <trkpt lat="43.55688" lon="6.78878">
        <ele>158.2</ele>
        <time>2025-10-24T06:13:28.000Z</time>
      </trkpt>
      <trkpt lat="43.55686" lon="6.78879">
        <ele>158.2</ele>
        <time>2025-10-24T06:13:29.000Z</time>
      </trkpt>
      <trkpt lat="43.55684" lon="6.7888">
        <ele>158.2</ele>
        <time>2025-10-24T06:13:30.000Z</time>
      </trkpt>
      <trkpt lat="43.55681" lon="6.78881">
        <ele>158.1</ele>
        <time>2025-10-24T06:13:31.000Z</time>
      </trkpt>
      <trkpt lat="43.55678" lon="6.78882">
        <ele>158.1</ele>
        <time>2025-10-24T06:13:32.000Z</time>
      </trkpt>
      <trkpt lat="43.55675" lon="6.78883">
        <ele>158.1</ele>
        <time>2025-10-24T06:13:33.000Z</time>
      </trkpt>
      <trkpt lat="43.55673" lon="6.78885">
        <ele>158.1</ele>
        <time>2025-10-24T06:13:34.000Z</time>
      </trkpt>
      <trkpt lat="43.5567" lon="6.78886">
        <ele>158.1</ele>
        <time>2025-10-24T06:13:35.000Z</time>
      </trkpt>
      <trkpt lat="43.55667" lon="6.78888">
        <ele>158.2</ele>
        <time>2025-10-24T06:13:36.000Z</time>
      </trkpt>
      <trkpt lat="43.55664" lon="6.7889">
        <ele>158.2</ele>
        <time>2025-10-24T06:13:37.000Z</time>
      </trkpt>
      <trkpt lat="43.55662" lon="6.78893">
        <ele>158.2</ele>
        <time>2025-10-24T06:13:38.000Z</time>
      </trkpt>
      <trkpt lat="43.55659" lon="6.78895">
        <ele>158.2</ele>
        <time>2025-10-24T06:13:39.000Z</time>
      </trkpt>
      <trkpt lat="43.55656" lon="6.78897">
        <ele>158.2</ele>
        <time>2025-10-24T06:13:40.000Z</time>
      </trkpt>
      <trkpt lat="43.55653" lon="6.78898">
        <ele>158.2</ele>
        <time>2025-10-24T06:13:41.000Z</time>
      </trkpt>
      <trkpt lat="43.5565" lon="6.78899">
        <ele>158.2</ele>
        <time>2025-10-24T06:13:42.000Z</time>
      </trkpt>
      <trkpt lat="43.55647" lon="6.78901">
        <ele>158.2</ele>
        <time>2025-10-24T06:13:43.000Z</time>
      </trkpt>
      <trkpt lat="43.55644" lon="6.78903">
        <ele>158.2</ele>
        <time>2025-10-24T06:13:44.000Z</time>
      </trkpt>
      <trkpt lat="43.55642" lon="6.78905">
        <ele>158.2</ele>
        <time>2025-10-24T06:13:45.000Z</time>
      </trkpt>
      <trkpt lat="43.55639" lon="6.78908">
        <ele>158.1</ele>
        <time>2025-10-24T06:13:46.000Z</time>
      </trkpt>
      <trkpt lat="43.55636" lon="6.78912">
        <ele>158.1</ele>
        <time>2025-10-24T06:13:47.000Z</time>
      </trkpt>
      <trkpt lat="43.55633" lon="6.78916">
        <ele>158.1</ele>
        <time>2025-10-24T06:13:48.000Z</time>
      </trkpt>
      <trkpt lat="43.5563" lon="6.7892">
        <ele>158.2</ele>
        <time>2025-10-24T06:13:49.000Z</time>
      </trkpt>
      <trkpt lat="43.55627" lon="6.78924">
        <ele>158.2</ele>
        <time>2025-10-24T06:13:50.000Z</time>
      </trkpt>
      <trkpt lat="43.55624" lon="6.78928">
        <ele>158.2</ele>
        <time>2025-10-24T06:13:51.000Z</time>
      </trkpt>
      <trkpt lat="43.55621" lon="6.78932">
        <ele>158.3</ele>
        <time>2025-10-24T06:13:52.000Z</time>
      </trkpt>
      <trkpt lat="43.55618" lon="6.78936">
        <ele>158.3</ele>
        <time>2025-10-24T06:13:53.000Z</time>
      </trkpt>
      <trkpt lat="43.55615" lon="6.78941">
        <ele>158.4</ele>
        <time>2025-10-24T06:13:54.000Z</time>
      </trkpt>
      <trkpt lat="43.55611" lon="6.78945">
        <ele>158.5</ele>
        <time>2025-10-24T06:13:55.000Z</time>
      </trkpt>
      <trkpt lat="43.55608" lon="6.7895">
        <ele>158.6</ele>
        <time>2025-10-24T06:13:56.000Z</time>
      </trkpt>
      <trkpt lat="43.55606" lon="6.78955">
        <ele>158.6</ele>
        <time>2025-10-24T06:13:57.000Z</time>
      </trkpt>
      <trkpt lat="43.55603" lon="6.7896">
        <ele>158.7</ele>
        <time>2025-10-24T06:13:58.000Z</time>
      </trkpt>
      <trkpt lat="43.556" lon="6.78965">
        <ele>158.7</ele>
        <time>2025-10-24T06:13:59.000Z</time>
      </trkpt>
      <trkpt lat="43.55598" lon="6.7897">
        <ele>158.7</ele>
        <time>2025-10-24T06:14:00.000Z</time>
      </trkpt>
      <trkpt lat="43.55595" lon="6.78975">
        <ele>158.7</ele>
        <time>2025-10-24T06:14:01.000Z</time>
      </trkpt>
      <trkpt lat="43.55592" lon="6.78981">
        <ele>158.6</ele>
        <time>2025-10-24T06:14:02.000Z</time>
      </trkpt>
      <trkpt lat="43.5559" lon="6.78986">
        <ele>158.6</ele>
        <time>2025-10-24T06:14:03.000Z</time>
      </trkpt>
      <trkpt lat="43.55587" lon="6.78991">
        <ele>158.6</ele>
        <time>2025-10-24T06:14:04.000Z</time>
      </trkpt>
      <trkpt lat="43.55584" lon="6.78997">
        <ele>158.5</ele>
        <time>2025-10-24T06:14:05.000Z</time>
      </trkpt>
      <trkpt lat="43.55582" lon="6.79002">
        <ele>158.5</ele>
        <time>2025-10-24T06:14:06.000Z</time>
      </trkpt>
      <trkpt lat="43.5558" lon="6.79008">
        <ele>158.5</ele>
        <time>2025-10-24T06:14:07.000Z</time>
      </trkpt>
      <trkpt lat="43.55577" lon="6.79014">
        <ele>158.5</ele>
        <time>2025-10-24T06:14:08.000Z</time>
      </trkpt>
      <trkpt lat="43.55575" lon="6.7902">
        <ele>158.5</ele>
        <time>2025-10-24T06:14:09.000Z</time>
      </trkpt>
      <trkpt lat="43.55573" lon="6.79026">
        <ele>158.6</ele>
        <time>2025-10-24T06:14:10.000Z</time>
      </trkpt>
      <trkpt lat="43.55571" lon="6.79033">
        <ele>158.6</ele>
        <time>2025-10-24T06:14:11.000Z</time>
      </trkpt>
      <trkpt lat="43.55569" lon="6.79039">
        <ele>158.7</ele>
        <time>2025-10-24T06:14:12.000Z</time>
      </trkpt>
      <trkpt lat="43.55567" lon="6.79045">
        <ele>158.7</ele>
        <time>2025-10-24T06:14:13.000Z</time>
      </trkpt>
      <trkpt lat="43.55565" lon="6.79052">
        <ele>158.8</ele>
        <time>2025-10-24T06:14:14.000Z</time>
      </trkpt>
      <trkpt lat="43.55564" lon="6.79059">
        <ele>158.9</ele>
        <time>2025-10-24T06:14:15.000Z</time>
      </trkpt>
      <trkpt lat="43.55562" lon="6.79066">
        <ele>159</ele>
        <time>2025-10-24T06:14:16.000Z</time>
      </trkpt>
      <trkpt lat="43.55561" lon="6.79072">
        <ele>159.1</ele>
        <time>2025-10-24T06:14:17.000Z</time>
      </trkpt>
      <trkpt lat="43.5556" lon="6.79079">
        <ele>159.2</ele>
        <time>2025-10-24T06:14:18.000Z</time>
      </trkpt>
      <trkpt lat="43.55559" lon="6.79085">
        <ele>159.3</ele>
        <time>2025-10-24T06:14:19.000Z</time>
      </trkpt>
      <trkpt lat="43.55557" lon="6.79091">
        <ele>159.4</ele>
        <time>2025-10-24T06:14:20.000Z</time>
      </trkpt>
      <trkpt lat="43.55556" lon="6.79096">
        <ele>159.4</ele>
        <time>2025-10-24T06:14:21.000Z</time>
      </trkpt>
      <trkpt lat="43.55554" lon="6.79101">
        <ele>159.4</ele>
        <time>2025-10-24T06:14:22.000Z</time>
      </trkpt>
      <trkpt lat="43.55553" lon="6.79106">
        <ele>159.4</ele>
        <time>2025-10-24T06:14:23.000Z</time>
      </trkpt>
      <trkpt lat="43.55552" lon="6.79112">
        <ele>159.3</ele>
        <time>2025-10-24T06:14:24.000Z</time>
      </trkpt>
      <trkpt lat="43.55552" lon="6.79117">
        <ele>159.3</ele>
        <time>2025-10-24T06:14:25.000Z</time>
      </trkpt>
      <trkpt lat="43.55551" lon="6.79123">
        <ele>159.2</ele>
        <time>2025-10-24T06:14:26.000Z</time>
      </trkpt>
      <trkpt lat="43.55551" lon="6.79128">
        <ele>159.1</ele>
        <time>2025-10-24T06:14:27.000Z</time>
      </trkpt>
      <trkpt lat="43.55551" lon="6.79133">
        <ele>158.9</ele>
        <time>2025-10-24T06:14:28.000Z</time>
      </trkpt>
      <trkpt lat="43.5555" lon="6.79138">
        <ele>158.8</ele>
        <time>2025-10-24T06:14:29.000Z</time>
      </trkpt>
      <trkpt lat="43.5555" lon="6.79142">
        <ele>158.6</ele>
        <time>2025-10-24T06:14:30.000Z</time>
      </trkpt>
      <trkpt lat="43.55548" lon="6.79145">
        <ele>158.5</ele>
        <time>2025-10-24T06:14:31.000Z</time>
      </trkpt>
      <trkpt lat="43.55546" lon="6.79148">
        <ele>158.3</ele>
        <time>2025-10-24T06:14:32.000Z</time>
      </trkpt>
      <trkpt lat="43.55543" lon="6.79149">
        <ele>158.1</ele>
        <time>2025-10-24T06:14:33.000Z</time>
      </trkpt>
      <trkpt lat="43.55539" lon="6.7915">
        <ele>157.8</ele>
        <time>2025-10-24T06:14:34.000Z</time>
      </trkpt>
      <trkpt lat="43.55535" lon="6.79151">
        <ele>157.5</ele>
        <time>2025-10-24T06:14:35.000Z</time>
      </trkpt>
      <trkpt lat="43.5553" lon="6.79152">
        <ele>157.2</ele>
        <time>2025-10-24T06:14:36.000Z</time>
      </trkpt>
      <trkpt lat="43.55524" lon="6.79153">
        <ele>157</ele>
        <time>2025-10-24T06:14:37.000Z</time>
      </trkpt>
      <trkpt lat="43.55519" lon="6.79155">
        <ele>156.8</ele>
        <time>2025-10-24T06:14:38.000Z</time>
      </trkpt>
      <trkpt lat="43.55513" lon="6.79159">
        <ele>156.7</ele>
        <time>2025-10-24T06:14:39.000Z</time>
      </trkpt>
      <trkpt lat="43.55508" lon="6.79163">
        <ele>156.7</ele>
        <time>2025-10-24T06:14:40.000Z</time>
      </trkpt>
      <trkpt lat="43.55503" lon="6.79167">
        <ele>156.7</ele>
        <time>2025-10-24T06:14:41.000Z</time>
      </trkpt>
      <trkpt lat="43.55498" lon="6.79172">
        <ele>156.7</ele>
        <time>2025-10-24T06:14:42.000Z</time>
      </trkpt>
      <trkpt lat="43.55495" lon="6.79177">
        <ele>156.7</ele>
        <time>2025-10-24T06:14:43.000Z</time>
      </trkpt>
      <trkpt lat="43.55493" lon="6.79182">
        <ele>156.6</ele>
        <time>2025-10-24T06:14:44.000Z</time>
      </trkpt>
      <trkpt lat="43.55493" lon="6.79188">
        <ele>156.5</ele>
        <time>2025-10-24T06:14:45.000Z</time>
      </trkpt>
      <trkpt lat="43.55492" lon="6.79194">
        <ele>156.4</ele>
        <time>2025-10-24T06:14:46.000Z</time>
      </trkpt>
      <trkpt lat="43.55492" lon="6.79201">
        <ele>156.2</ele>
        <time>2025-10-24T06:14:47.000Z</time>
      </trkpt>
      <trkpt lat="43.55491" lon="6.79207">
        <ele>156.1</ele>
        <time>2025-10-24T06:14:48.000Z</time>
      </trkpt>
      <trkpt lat="43.55491" lon="6.79213">
        <ele>156</ele>
        <time>2025-10-24T06:14:49.000Z</time>
      </trkpt>
      <trkpt lat="43.55491" lon="6.79219">
        <ele>156</ele>
        <time>2025-10-24T06:14:50.000Z</time>
      </trkpt>
      <trkpt lat="43.5549" lon="6.79225">
        <ele>155.9</ele>
        <time>2025-10-24T06:14:51.000Z</time>
      </trkpt>
      <trkpt lat="43.55489" lon="6.7923">
        <ele>155.9</ele>
        <time>2025-10-24T06:14:52.000Z</time>
      </trkpt>
      <trkpt lat="43.55486" lon="6.79234">
        <ele>155.9</ele>
        <time>2025-10-24T06:14:53.000Z</time>
      </trkpt>
      <trkpt lat="43.55484" lon="6.79237">
        <ele>155.8</ele>
        <time>2025-10-24T06:14:54.000Z</time>
      </trkpt>
      <trkpt lat="43.5548" lon="6.79239">
        <ele>155.8</ele>
        <time>2025-10-24T06:14:55.000Z</time>
      </trkpt>
      <trkpt lat="43.55477" lon="6.79242">
        <ele>155.8</ele>
        <time>2025-10-24T06:14:56.000Z</time>
      </trkpt>
      <trkpt lat="43.55473" lon="6.79244">
        <ele>155.8</ele>
        <time>2025-10-24T06:14:57.000Z</time>
      </trkpt>
      <trkpt lat="43.55468" lon="6.79246">
        <ele>155.9</ele>
        <time>2025-10-24T06:14:58.000Z</time>
      </trkpt>
      <trkpt lat="43.55464" lon="6.79247">
        <ele>155.9</ele>
        <time>2025-10-24T06:14:59.000Z</time>
      </trkpt>
      <trkpt lat="43.55459" lon="6.79248">
        <ele>156</ele>
        <time>2025-10-24T06:15:00.000Z</time>
      </trkpt>
      <trkpt lat="43.55454" lon="6.79248">
        <ele>156.1</ele>
        <time>2025-10-24T06:15:01.000Z</time>
      </trkpt>
      <trkpt lat="43.55449" lon="6.79247">
        <ele>156.2</ele>
        <time>2025-10-24T06:15:02.000Z</time>
      </trkpt>
      <trkpt lat="43.55444" lon="6.79245">
        <ele>156.3</ele>
        <time>2025-10-24T06:15:03.000Z</time>
      </trkpt>
      <trkpt lat="43.5544" lon="6.79244">
        <ele>156.5</ele>
        <time>2025-10-24T06:15:04.000Z</time>
      </trkpt>
      <trkpt lat="43.55435" lon="6.79243">
        <ele>156.6</ele>
        <time>2025-10-24T06:15:05.000Z</time>
      </trkpt>
      <trkpt lat="43.5543" lon="6.79243">
        <ele>156.8</ele>
        <time>2025-10-24T06:15:06.000Z</time>
      </trkpt>
      <trkpt lat="43.55425" lon="6.79243">
        <ele>156.9</ele>
        <time>2025-10-24T06:15:07.000Z</time>
      </trkpt>
      <trkpt lat="43.55421" lon="6.79245">
        <ele>157</ele>
        <time>2025-10-24T06:15:08.000Z</time>
      </trkpt>
      <trkpt lat="43.55417" lon="6.79248">
        <ele>157.1</ele>
        <time>2025-10-24T06:15:09.000Z</time>
      </trkpt>
      <trkpt lat="43.55413" lon="6.79251">
        <ele>157.2</ele>
        <time>2025-10-24T06:15:10.000Z</time>
      </trkpt>
      <trkpt lat="43.5541" lon="6.79256">
        <ele>157.4</ele>
        <time>2025-10-24T06:15:11.000Z</time>
      </trkpt>
      <trkpt lat="43.55407" lon="6.7926">
        <ele>157.5</ele>
        <time>2025-10-24T06:15:12.000Z</time>
      </trkpt>
      <trkpt lat="43.55405" lon="6.79265">
        <ele>157.6</ele>
        <time>2025-10-24T06:15:13.000Z</time>
      </trkpt>
      <trkpt lat="43.55403" lon="6.7927">
        <ele>157.8</ele>
        <time>2025-10-24T06:15:14.000Z</time>
      </trkpt>
      <trkpt lat="43.55401" lon="6.79274">
        <ele>157.9</ele>
        <time>2025-10-24T06:15:15.000Z</time>
      </trkpt>
      <trkpt lat="43.55399" lon="6.79278">
        <ele>158.1</ele>
        <time>2025-10-24T06:15:16.000Z</time>
      </trkpt>
      <trkpt lat="43.55397" lon="6.79282">
        <ele>158.2</ele>
        <time>2025-10-24T06:15:17.000Z</time>
      </trkpt>
      <trkpt lat="43.55396" lon="6.79286">
        <ele>158.3</ele>
        <time>2025-10-24T06:15:18.000Z</time>
      </trkpt>
      <trkpt lat="43.55394" lon="6.7929">
        <ele>158.4</ele>
        <time>2025-10-24T06:15:19.000Z</time>
      </trkpt>
      <trkpt lat="43.55392" lon="6.79295">
        <ele>158.5</ele>
        <time>2025-10-24T06:15:20.000Z</time>
      </trkpt>
      <trkpt lat="43.5539" lon="6.79299">
        <ele>158.5</ele>
        <time>2025-10-24T06:15:21.000Z</time>
      </trkpt>
      <trkpt lat="43.55388" lon="6.79303">
        <ele>158.4</ele>
        <time>2025-10-24T06:15:22.000Z</time>
      </trkpt>
      <trkpt lat="43.55385" lon="6.79306">
        <ele>158.4</ele>
        <time>2025-10-24T06:15:23.000Z</time>
      </trkpt>
      <trkpt lat="43.55382" lon="6.79309">
        <ele>158.2</ele>
        <time>2025-10-24T06:15:24.000Z</time>
      </trkpt>
      <trkpt lat="43.55377" lon="6.79312">
        <ele>158</ele>
        <time>2025-10-24T06:15:25.000Z</time>
      </trkpt>
      <trkpt lat="43.55373" lon="6.79314">
        <ele>157.8</ele>
        <time>2025-10-24T06:15:26.000Z</time>
      </trkpt>
      <trkpt lat="43.55367" lon="6.79315">
        <ele>157.6</ele>
        <time>2025-10-24T06:15:27.000Z</time>
      </trkpt>
      <trkpt lat="43.55362" lon="6.79315">
        <ele>157.4</ele>
        <time>2025-10-24T06:15:28.000Z</time>
      </trkpt>
      <trkpt lat="43.55358" lon="6.79314">
        <ele>157.3</ele>
        <time>2025-10-24T06:15:29.000Z</time>
      </trkpt>
      <trkpt lat="43.55354" lon="6.79313">
        <ele>157.2</ele>
        <time>2025-10-24T06:15:30.000Z</time>
      </trkpt>
      <trkpt lat="43.55351" lon="6.79311">
        <ele>157.2</ele>
        <time>2025-10-24T06:15:31.000Z</time>
      </trkpt>
      <trkpt lat="43.55349" lon="6.79308">
        <ele>157.1</ele>
        <time>2025-10-24T06:15:32.000Z</time>
      </trkpt>
      <trkpt lat="43.55346" lon="6.79304">
        <ele>157.1</ele>
        <time>2025-10-24T06:15:33.000Z</time>
      </trkpt>
      <trkpt lat="43.55343" lon="6.79301">
        <ele>157</ele>
        <time>2025-10-24T06:15:34.000Z</time>
      </trkpt>
      <trkpt lat="43.5534" lon="6.79297">
        <ele>157</ele>
        <time>2025-10-24T06:15:35.000Z</time>
      </trkpt>
      <trkpt lat="43.55336" lon="6.79294">
        <ele>157</ele>
        <time>2025-10-24T06:15:36.000Z</time>
      </trkpt>
      <trkpt lat="43.55332" lon="6.79291">
        <ele>156.9</ele>
        <time>2025-10-24T06:15:37.000Z</time>
      </trkpt>
      <trkpt lat="43.55328" lon="6.7929">
        <ele>156.9</ele>
        <time>2025-10-24T06:15:38.000Z</time>
      </trkpt>
      <trkpt lat="43.55324" lon="6.79289">
        <ele>156.8</ele>
        <time>2025-10-24T06:15:39.000Z</time>
      </trkpt>
      <trkpt lat="43.5532" lon="6.79289">
        <ele>156.7</ele>
        <time>2025-10-24T06:15:40.000Z</time>
      </trkpt>
      <trkpt lat="43.55316" lon="6.79289">
        <ele>156.7</ele>
        <time>2025-10-24T06:15:41.000Z</time>
      </trkpt>
      <trkpt lat="43.55312" lon="6.79289">
        <ele>156.6</ele>
        <time>2025-10-24T06:15:42.000Z</time>
      </trkpt>
      <trkpt lat="43.55309" lon="6.7929">
        <ele>156.5</ele>
        <time>2025-10-24T06:15:43.000Z</time>
      </trkpt>
      <trkpt lat="43.55305" lon="6.79291">
        <ele>156.5</ele>
        <time>2025-10-24T06:15:44.000Z</time>
      </trkpt>
      <trkpt lat="43.55302" lon="6.79292">
        <ele>156.4</ele>
        <time>2025-10-24T06:15:45.000Z</time>
      </trkpt>
      <trkpt lat="43.55298" lon="6.79293">
        <ele>156.4</ele>
        <time>2025-10-24T06:15:46.000Z</time>
      </trkpt>
      <trkpt lat="43.55295" lon="6.79295">
        <ele>156.4</ele>
        <time>2025-10-24T06:15:47.000Z</time>
      </trkpt>
      <trkpt lat="43.55291" lon="6.79297">
        <ele>156.3</ele>
        <time>2025-10-24T06:15:48.000Z</time>
      </trkpt>
      <trkpt lat="43.55288" lon="6.79299">
        <ele>156.3</ele>
        <time>2025-10-24T06:15:49.000Z</time>
      </trkpt>
      <trkpt lat="43.55284" lon="6.79302">
        <ele>156.3</ele>
        <time>2025-10-24T06:15:50.000Z</time>
      </trkpt>
      <trkpt lat="43.5528" lon="6.79306">
        <ele>156.3</ele>
        <time>2025-10-24T06:15:51.000Z</time>
      </trkpt>
      <trkpt lat="43.55277" lon="6.7931">
        <ele>156.4</ele>
        <time>2025-10-24T06:15:52.000Z</time>
      </trkpt>
      <trkpt lat="43.55273" lon="6.79313">
        <ele>156.5</ele>
        <time>2025-10-24T06:15:53.000Z</time>
      </trkpt>
      <trkpt lat="43.5527" lon="6.79317">
        <ele>156.6</ele>
        <time>2025-10-24T06:15:54.000Z</time>
      </trkpt>
      <trkpt lat="43.55266" lon="6.79321">
        <ele>156.8</ele>
        <time>2025-10-24T06:15:55.000Z</time>
      </trkpt>
      <trkpt lat="43.55262" lon="6.79324">
        <ele>157</ele>
        <time>2025-10-24T06:15:56.000Z</time>
      </trkpt>
      <trkpt lat="43.55259" lon="6.79328">
        <ele>157.3</ele>
        <time>2025-10-24T06:15:57.000Z</time>
      </trkpt>
      <trkpt lat="43.55255" lon="6.79332">
        <ele>157.6</ele>
        <time>2025-10-24T06:15:58.000Z</time>
      </trkpt>
      <trkpt lat="43.55253" lon="6.79336">
        <ele>157.9</ele>
        <time>2025-10-24T06:15:59.000Z</time>
      </trkpt>
      <trkpt lat="43.55251" lon="6.7934">
        <ele>158.1</ele>
        <time>2025-10-24T06:16:00.000Z</time>
      </trkpt>
      <trkpt lat="43.55249" lon="6.79345">
        <ele>158.3</ele>
        <time>2025-10-24T06:16:01.000Z</time>
      </trkpt>
      <trkpt lat="43.55247" lon="6.79349">
        <ele>158.4</ele>
        <time>2025-10-24T06:16:02.000Z</time>
      </trkpt>
      <trkpt lat="43.55246" lon="6.79353">
        <ele>158.5</ele>
        <time>2025-10-24T06:16:03.000Z</time>
      </trkpt>
      <trkpt lat="43.55244" lon="6.79358">
        <ele>158.6</ele>
        <time>2025-10-24T06:16:04.000Z</time>
      </trkpt>
      <trkpt lat="43.55242" lon="6.79363">
        <ele>158.6</ele>
        <time>2025-10-24T06:16:05.000Z</time>
      </trkpt>
      <trkpt lat="43.5524" lon="6.79367">
        <ele>158.5</ele>
        <time>2025-10-24T06:16:06.000Z</time>
      </trkpt>
      <trkpt lat="43.55238" lon="6.79371">
        <ele>158.4</ele>
        <time>2025-10-24T06:16:07.000Z</time>
      </trkpt>
      <trkpt lat="43.55236" lon="6.79376">
        <ele>158.3</ele>
        <time>2025-10-24T06:16:08.000Z</time>
      </trkpt>
      <trkpt lat="43.55234" lon="6.79381">
        <ele>158.1</ele>
        <time>2025-10-24T06:16:09.000Z</time>
      </trkpt>
      <trkpt lat="43.55231" lon="6.79386">
        <ele>158</ele>
        <time>2025-10-24T06:16:10.000Z</time>
      </trkpt>
      <trkpt lat="43.55229" lon="6.79391">
        <ele>157.8</ele>
        <time>2025-10-24T06:16:11.000Z</time>
      </trkpt>
      <trkpt lat="43.55226" lon="6.79397">
        <ele>157.6</ele>
        <time>2025-10-24T06:16:12.000Z</time>
      </trkpt>
      <trkpt lat="43.55224" lon="6.79402">
        <ele>157.3</ele>
        <time>2025-10-24T06:16:13.000Z</time>
      </trkpt>
      <trkpt lat="43.55222" lon="6.79408">
        <ele>157.1</ele>
        <time>2025-10-24T06:16:14.000Z</time>
      </trkpt>
      <trkpt lat="43.5522" lon="6.79413">
        <ele>157</ele>
        <time>2025-10-24T06:16:15.000Z</time>
      </trkpt>
      <trkpt lat="43.55217" lon="6.79419">
        <ele>156.8</ele>
        <time>2025-10-24T06:16:16.000Z</time>
      </trkpt>
      <trkpt lat="43.55215" lon="6.79424">
        <ele>156.6</ele>
        <time>2025-10-24T06:16:17.000Z</time>
      </trkpt>
      <trkpt lat="43.55212" lon="6.7943">
        <ele>156.6</ele>
        <time>2025-10-24T06:16:18.000Z</time>
      </trkpt>
      <trkpt lat="43.5521" lon="6.79435">
        <ele>156.5</ele>
        <time>2025-10-24T06:16:19.000Z</time>
      </trkpt>
      <trkpt lat="43.55207" lon="6.7944">
        <ele>156.4</ele>
        <time>2025-10-24T06:16:20.000Z</time>
      </trkpt>
      <trkpt lat="43.55205" lon="6.79445">
        <ele>156.4</ele>
        <time>2025-10-24T06:16:21.000Z</time>
      </trkpt>
      <trkpt lat="43.55202" lon="6.79449">
        <ele>156.4</ele>
        <time>2025-10-24T06:16:22.000Z</time>
      </trkpt>
      <trkpt lat="43.552" lon="6.79454">
        <ele>156.4</ele>
        <time>2025-10-24T06:16:23.000Z</time>
      </trkpt>
      <trkpt lat="43.55198" lon="6.79458">
        <ele>156.4</ele>
        <time>2025-10-24T06:16:24.000Z</time>
      </trkpt>
      <trkpt lat="43.55197" lon="6.79462">
        <ele>156.4</ele>
        <time>2025-10-24T06:16:25.000Z</time>
      </trkpt>
      <trkpt lat="43.55197" lon="6.79467">
        <ele>156.5</ele>
        <time>2025-10-24T06:16:26.000Z</time>
      </trkpt>
      <trkpt lat="43.55196" lon="6.79472">
        <ele>156.5</ele>
        <time>2025-10-24T06:16:27.000Z</time>
      </trkpt>
      <trkpt lat="43.55197" lon="6.79477">
        <ele>156.5</ele>
        <time>2025-10-24T06:16:28.000Z</time>
      </trkpt>
      <trkpt lat="43.55198" lon="6.79482">
        <ele>156.5</ele>
        <time>2025-10-24T06:16:29.000Z</time>
      </trkpt>
      <trkpt lat="43.55199" lon="6.79487">
        <ele>156.4</ele>
        <time>2025-10-24T06:16:30.000Z</time>
      </trkpt>
      <trkpt lat="43.552" lon="6.79492">
        <ele>156.4</ele>
        <time>2025-10-24T06:16:31.000Z</time>
      </trkpt>
      <trkpt lat="43.55201" lon="6.79498">
        <ele>156.4</ele>
        <time>2025-10-24T06:16:32.000Z</time>
      </trkpt>
      <trkpt lat="43.55202" lon="6.79504">
        <ele>156.3</ele>
        <time>2025-10-24T06:16:33.000Z</time>
      </trkpt>
      <trkpt lat="43.55203" lon="6.7951">
        <ele>156.3</ele>
        <time>2025-10-24T06:16:34.000Z</time>
      </trkpt>
      <trkpt lat="43.55204" lon="6.79515">
        <ele>156.2</ele>
        <time>2025-10-24T06:16:35.000Z</time>
      </trkpt>
      <trkpt lat="43.55205" lon="6.79521">
        <ele>156.2</ele>
        <time>2025-10-24T06:16:36.000Z</time>
      </trkpt>
      <trkpt lat="43.55206" lon="6.79526">
        <ele>156.2</ele>
        <time>2025-10-24T06:16:37.000Z</time>
      </trkpt>
      <trkpt lat="43.55207" lon="6.79531">
        <ele>156.2</ele>
        <time>2025-10-24T06:16:38.000Z</time>
      </trkpt>
      <trkpt lat="43.55208" lon="6.79536">
        <ele>156.2</ele>
        <time>2025-10-24T06:16:39.000Z</time>
      </trkpt>
      <trkpt lat="43.55209" lon="6.79542">
        <ele>156.2</ele>
        <time>2025-10-24T06:16:40.000Z</time>
      </trkpt>
      <trkpt lat="43.55211" lon="6.79547">
        <ele>156.2</ele>
        <time>2025-10-24T06:16:41.000Z</time>
      </trkpt>
      <trkpt lat="43.55212" lon="6.79552">
        <ele>156.2</ele>
        <time>2025-10-24T06:16:42.000Z</time>
      </trkpt>
      <trkpt lat="43.55214" lon="6.79557">
        <ele>156.3</ele>
        <time>2025-10-24T06:16:43.000Z</time>
      </trkpt>
      <trkpt lat="43.55215" lon="6.79563">
        <ele>156.3</ele>
        <time>2025-10-24T06:16:44.000Z</time>
      </trkpt>
      <trkpt lat="43.55216" lon="6.79568">
        <ele>156.3</ele>
        <time>2025-10-24T06:16:45.000Z</time>
      </trkpt>
      <trkpt lat="43.55218" lon="6.79573">
        <ele>156.3</ele>
        <time>2025-10-24T06:16:46.000Z</time>
      </trkpt>
      <trkpt lat="43.5522" lon="6.79578">
        <ele>156.4</ele>
        <time>2025-10-24T06:16:47.000Z</time>
      </trkpt>
      <trkpt lat="43.55221" lon="6.79583">
        <ele>156.4</ele>
        <time>2025-10-24T06:16:48.000Z</time>
      </trkpt>
      <trkpt lat="43.55223" lon="6.79588">
        <ele>156.4</ele>
        <time>2025-10-24T06:16:49.000Z</time>
      </trkpt>
      <trkpt lat="43.55224" lon="6.79592">
        <ele>156.5</ele>
        <time>2025-10-24T06:16:50.000Z</time>
      </trkpt>
      <trkpt lat="43.55226" lon="6.79597">
        <ele>156.5</ele>
        <time>2025-10-24T06:16:51.000Z</time>
      </trkpt>
      <trkpt lat="43.55228" lon="6.79602">
        <ele>156.5</ele>
        <time>2025-10-24T06:16:52.000Z</time>
      </trkpt>
      <trkpt lat="43.5523" lon="6.79607">
        <ele>156.5</ele>
        <time>2025-10-24T06:16:53.000Z</time>
      </trkpt>
      <trkpt lat="43.55232" lon="6.79611">
        <ele>156.6</ele>
        <time>2025-10-24T06:16:54.000Z</time>
      </trkpt>
      <trkpt lat="43.55235" lon="6.79616">
        <ele>156.6</ele>
        <time>2025-10-24T06:16:55.000Z</time>
      </trkpt>
      <trkpt lat="43.55237" lon="6.7962">
        <ele>156.7</ele>
        <time>2025-10-24T06:16:56.000Z</time>
      </trkpt>
      <trkpt lat="43.5524" lon="6.79623">
        <ele>156.7</ele>
        <time>2025-10-24T06:16:57.000Z</time>
      </trkpt>
      <trkpt lat="43.55242" lon="6.79626">
        <ele>156.7</ele>
        <time>2025-10-24T06:16:58.000Z</time>
      </trkpt>
      <trkpt lat="43.55244" lon="6.79628">
        <ele>156.7</ele>
        <time>2025-10-24T06:16:59.000Z</time>
      </trkpt>
      <trkpt lat="43.55246" lon="6.7963">
        <ele>156.7</ele>
        <time>2025-10-24T06:17:00.000Z</time>
      </trkpt>
      <trkpt lat="43.55247" lon="6.79632">
        <ele>156.7</ele>
        <time>2025-10-24T06:17:01.000Z</time>
      </trkpt>
      <trkpt lat="43.55248" lon="6.79632">
        <ele>156.7</ele>
        <time>2025-10-24T06:17:02.000Z</time>
      </trkpt>
      <trkpt lat="43.55248" lon="6.79633">
        <ele>156.7</ele>
        <time>2025-10-24T06:17:03.000Z</time>
      </trkpt>
      <trkpt lat="43.55249" lon="6.79633">
        <ele>156.7</ele>
        <time>2025-10-24T06:17:04.000Z</time>
      </trkpt>
      <trkpt lat="43.55249" lon="6.79633">
        <ele>156.7</ele>
        <time>2025-10-24T06:17:05.000Z</time>
      </trkpt>
      <trkpt lat="43.5525" lon="6.79633">
        <ele>156.7</ele>
        <time>2025-10-24T06:17:06.000Z</time>
      </trkpt>
      <trkpt lat="43.5525" lon="6.79632">
        <ele>156.7</ele>
        <time>2025-10-24T06:17:07.000Z</time>
      </trkpt>
      <trkpt lat="43.5525" lon="6.79632">
        <ele>156.7</ele>
        <time>2025-10-24T06:17:08.000Z</time>
      </trkpt>
      <trkpt lat="43.5525" lon="6.79632">
        <ele>156.7</ele>
        <time>2025-10-24T06:17:09.000Z</time>
      </trkpt>
      <trkpt lat="43.5525" lon="6.79632">
        <ele>156.7</ele>
        <time>2025-10-24T06:17:10.000Z</time>
      </trkpt>
      <trkpt lat="43.5525" lon="6.79632">
        <ele>156.7</ele>
        <time>2025-10-24T06:17:11.000Z</time>
      </trkpt>
      <trkpt lat="43.55251" lon="6.79631">
        <ele>156.7</ele>
        <time>2025-10-24T06:17:12.000Z</time>
      </trkpt>
      <trkpt lat="43.55251" lon="6.79631">
        <ele>156.7</ele>
        <time>2025-10-24T06:17:13.000Z</time>
      </trkpt>
      <trkpt lat="43.55251" lon="6.79631">
        <ele>156.7</ele>
        <time>2025-10-24T06:17:14.000Z</time>
      </trkpt>
      <trkpt lat="43.55252" lon="6.7963">
        <ele>156.7</ele>
        <time>2025-10-24T06:17:15.000Z</time>
      </trkpt>
      <trkpt lat="43.55252" lon="6.7963">
        <ele>156.7</ele>
        <time>2025-10-24T06:17:16.000Z</time>
      </trkpt>
      <trkpt lat="43.55252" lon="6.7963">
        <ele>156.7</ele>
        <time>2025-10-24T06:17:17.000Z</time>
      </trkpt>
      <trkpt lat="43.55252" lon="6.7963">
        <ele>156.7</ele>
        <time>2025-10-24T06:17:18.000Z</time>
      </trkpt>
      <trkpt lat="43.55252" lon="6.7963">
        <ele>156.7</ele>
        <time>2025-10-24T06:17:19.000Z</time>
      </trkpt>
      <trkpt lat="43.55252" lon="6.7963">
        <ele>156.7</ele>
        <time>2025-10-24T06:17:20.000Z</time>
      </trkpt>
      <trkpt lat="43.55252" lon="6.7963">
        <ele>156.7</ele>
        <time>2025-10-24T06:17:21.000Z</time>
      </trkpt>
      <trkpt lat="43.55252" lon="6.7963">
        <ele>156.7</ele>
        <time>2025-10-24T06:17:22.000Z</time>
      </trkpt>
      <trkpt lat="43.55252" lon="6.7963">
        <ele>156.7</ele>
        <time>2025-10-24T06:17:23.000Z</time>
      </trkpt>
      <trkpt lat="43.55252" lon="6.7963">
        <ele>156.7</ele>
        <time>2025-10-24T06:17:24.000Z</time>
      </trkpt>
      <trkpt lat="43.55252" lon="6.7963">
        <ele>156.7</ele>
        <time>2025-10-24T06:17:25.000Z</time>
      </trkpt>
      <trkpt lat="43.55252" lon="6.79629">
        <ele>156.7</ele>
        <time>2025-10-24T06:17:26.000Z</time>
      </trkpt>
      <trkpt lat="43.55255" lon="6.79628">
        <ele>156.7</ele>
        <time>2025-10-24T06:17:27.000Z</time>
      </trkpt>
      <trkpt lat="43.55259" lon="6.79627">
        <ele>156.6</ele>
        <time>2025-10-24T06:17:28.000Z</time>
      </trkpt>
      <trkpt lat="43.55263" lon="6.79625">
        <ele>156.6</ele>
        <time>2025-10-24T06:17:29.000Z</time>
      </trkpt>
      <trkpt lat="43.55267" lon="6.79623">
        <ele>156.6</ele>
        <time>2025-10-24T06:17:30.000Z</time>
      </trkpt>
      <trkpt lat="43.55271" lon="6.79622">
        <ele>156.7</ele>
        <time>2025-10-24T06:17:31.000Z</time>
      </trkpt>
      <trkpt lat="43.55275" lon="6.7962">
        <ele>156.7</ele>
        <time>2025-10-24T06:17:32.000Z</time>
      </trkpt>
      <trkpt lat="43.5528" lon="6.79618">
        <ele>156.7</ele>
        <time>2025-10-24T06:17:33.000Z</time>
      </trkpt>
      <trkpt lat="43.55284" lon="6.79616">
        <ele>156.7</ele>
        <time>2025-10-24T06:17:34.000Z</time>
      </trkpt>
      <trkpt lat="43.55288" lon="6.79614">
        <ele>156.7</ele>
        <time>2025-10-24T06:17:35.000Z</time>
      </trkpt>
      <trkpt lat="43.55291" lon="6.79612">
        <ele>156.8</ele>
        <time>2025-10-24T06:17:36.000Z</time>
      </trkpt>
      <trkpt lat="43.55295" lon="6.79611">
        <ele>156.8</ele>
        <time>2025-10-24T06:17:37.000Z</time>
      </trkpt>
      <trkpt lat="43.55298" lon="6.79609">
        <ele>156.8</ele>
        <time>2025-10-24T06:17:38.000Z</time>
      </trkpt>
      <trkpt lat="43.55302" lon="6.79608">
        <ele>156.9</ele>
        <time>2025-10-24T06:17:39.000Z</time>
      </trkpt>
      <trkpt lat="43.55306" lon="6.79606">
        <ele>156.9</ele>
        <time>2025-10-24T06:17:40.000Z</time>
      </trkpt>
      <trkpt lat="43.5531" lon="6.79604">
        <ele>156.9</ele>
        <time>2025-10-24T06:17:41.000Z</time>
      </trkpt>
      <trkpt lat="43.55314" lon="6.79603">
        <ele>157</ele>
        <time>2025-10-24T06:17:42.000Z</time>
      </trkpt>
      <trkpt lat="43.55317" lon="6.79601">
        <ele>157</ele>
        <time>2025-10-24T06:17:43.000Z</time>
      </trkpt>
      <trkpt lat="43.55321" lon="6.79599">
        <ele>157.1</ele>
        <time>2025-10-24T06:17:44.000Z</time>
      </trkpt>
      <trkpt lat="43.55325" lon="6.79598">
        <ele>157.2</ele>
        <time>2025-10-24T06:17:45.000Z</time>
      </trkpt>
      <trkpt lat="43.55328" lon="6.79596">
        <ele>157.2</ele>
        <time>2025-10-24T06:17:46.000Z</time>
      </trkpt>
      <trkpt lat="43.55332" lon="6.79595">
        <ele>157.3</ele>
        <time>2025-10-24T06:17:47.000Z</time>
      </trkpt>
      <trkpt lat="43.55335" lon="6.79593">
        <ele>157.3</ele>
        <time>2025-10-24T06:17:48.000Z</time>
      </trkpt>
      <trkpt lat="43.55339" lon="6.79592">
        <ele>157.4</ele>
        <time>2025-10-24T06:17:49.000Z</time>
      </trkpt>
      <trkpt lat="43.55342" lon="6.7959">
        <ele>157.4</ele>
        <time>2025-10-24T06:17:50.000Z</time>
      </trkpt>
      <trkpt lat="43.55346" lon="6.79588">
        <ele>157.4</ele>
        <time>2025-10-24T06:17:51.000Z</time>
      </trkpt>
      <trkpt lat="43.5535" lon="6.79587">
        <ele>157.4</ele>
        <time>2025-10-24T06:17:52.000Z</time>
      </trkpt>
      <trkpt lat="43.55353" lon="6.79585">
        <ele>157.5</ele>
        <time>2025-10-24T06:17:53.000Z</time>
      </trkpt>
      <trkpt lat="43.55357" lon="6.79584">
        <ele>157.5</ele>
        <time>2025-10-24T06:17:54.000Z</time>
      </trkpt>
      <trkpt lat="43.55361" lon="6.79583">
        <ele>157.5</ele>
        <time>2025-10-24T06:17:55.000Z</time>
      </trkpt>
      <trkpt lat="43.55364" lon="6.79581">
        <ele>157.5</ele>
        <time>2025-10-24T06:17:56.000Z</time>
      </trkpt>
      <trkpt lat="43.55367" lon="6.7958">
        <ele>157.6</ele>
        <time>2025-10-24T06:17:57.000Z</time>
      </trkpt>
      <trkpt lat="43.5537" lon="6.79578">
        <ele>157.6</ele>
        <time>2025-10-24T06:17:58.000Z</time>
      </trkpt>
      <trkpt lat="43.55373" lon="6.79576">
        <ele>157.6</ele>
        <time>2025-10-24T06:17:59.000Z</time>
      </trkpt>
      <trkpt lat="43.55375" lon="6.79574">
        <ele>157.6</ele>
        <time>2025-10-24T06:18:00.000Z</time>
      </trkpt>
      <trkpt lat="43.55377" lon="6.79572">
        <ele>157.6</ele>
        <time>2025-10-24T06:18:01.000Z</time>
      </trkpt>
      <trkpt lat="43.55379" lon="6.79569">
        <ele>157.6</ele>
        <time>2025-10-24T06:18:02.000Z</time>
      </trkpt>
      <trkpt lat="43.5538" lon="6.79566">
        <ele>157.7</ele>
        <time>2025-10-24T06:18:03.000Z</time>
      </trkpt>
      <trkpt lat="43.5538" lon="6.79564">
        <ele>157.7</ele>
        <time>2025-10-24T06:18:04.000Z</time>
      </trkpt>
      <trkpt lat="43.55379" lon="6.79561">
        <ele>157.7</ele>
        <time>2025-10-24T06:18:05.000Z</time>
      </trkpt>
      <trkpt lat="43.55377" lon="6.79559">
        <ele>157.7</ele>
        <time>2025-10-24T06:18:06.000Z</time>
      </trkpt>
      <trkpt lat="43.55375" lon="6.79557">
        <ele>157.7</ele>
        <time>2025-10-24T06:18:07.000Z</time>
      </trkpt>
      <trkpt lat="43.55373" lon="6.79555">
        <ele>157.7</ele>
        <time>2025-10-24T06:18:08.000Z</time>
      </trkpt>
      <trkpt lat="43.55371" lon="6.79555">
        <ele>157.7</ele>
        <time>2025-10-24T06:18:09.000Z</time>
      </trkpt>
      <trkpt lat="43.55369" lon="6.79557">
        <ele>157.8</ele>
        <time>2025-10-24T06:18:10.000Z</time>
      </trkpt>
      <trkpt lat="43.55368" lon="6.79559">
        <ele>157.8</ele>
        <time>2025-10-24T06:18:11.000Z</time>
      </trkpt>
      <trkpt lat="43.55368" lon="6.79562">
        <ele>157.8</ele>
        <time>2025-10-24T06:18:12.000Z</time>
      </trkpt>
      <trkpt lat="43.5537" lon="6.79565">
        <ele>157.8</ele>
        <time>2025-10-24T06:18:13.000Z</time>
      </trkpt>
      <trkpt lat="43.55372" lon="6.79568">
        <ele>157.8</ele>
        <time>2025-10-24T06:18:14.000Z</time>
      </trkpt>
      <trkpt lat="43.55375" lon="6.79569">
        <ele>157.8</ele>
        <time>2025-10-24T06:18:15.000Z</time>
      </trkpt>
      <trkpt lat="43.55379" lon="6.7957">
        <ele>157.9</ele>
        <time>2025-10-24T06:18:16.000Z</time>
      </trkpt>
      <trkpt lat="43.55382" lon="6.79572">
        <ele>157.9</ele>
        <time>2025-10-24T06:18:17.000Z</time>
      </trkpt>
      <trkpt lat="43.55386" lon="6.79573">
        <ele>157.9</ele>
        <time>2025-10-24T06:18:18.000Z</time>
      </trkpt>
      <trkpt lat="43.55388" lon="6.79575">
        <ele>157.9</ele>
        <time>2025-10-24T06:18:19.000Z</time>
      </trkpt>
      <trkpt lat="43.55391" lon="6.79578">
        <ele>157.9</ele>
        <time>2025-10-24T06:18:20.000Z</time>
      </trkpt>
      <trkpt lat="43.55394" lon="6.7958">
        <ele>158</ele>
        <time>2025-10-24T06:18:21.000Z</time>
      </trkpt>
      <trkpt lat="43.55397" lon="6.79582">
        <ele>158</ele>
        <time>2025-10-24T06:18:22.000Z</time>
      </trkpt>
      <trkpt lat="43.554" lon="6.79583">
        <ele>158</ele>
        <time>2025-10-24T06:18:23.000Z</time>
      </trkpt>
      <trkpt lat="43.55403" lon="6.79584">
        <ele>158.1</ele>
        <time>2025-10-24T06:18:24.000Z</time>
      </trkpt>
      <trkpt lat="43.55407" lon="6.79585">
        <ele>158.1</ele>
        <time>2025-10-24T06:18:25.000Z</time>
      </trkpt>
      <trkpt lat="43.5541" lon="6.79585">
        <ele>158.2</ele>
        <time>2025-10-24T06:18:26.000Z</time>
      </trkpt>
      <trkpt lat="43.55414" lon="6.79586">
        <ele>158.2</ele>
        <time>2025-10-24T06:18:27.000Z</time>
      </trkpt>
      <trkpt lat="43.55417" lon="6.79586">
        <ele>158.3</ele>
        <time>2025-10-24T06:18:28.000Z</time>
      </trkpt>
      <trkpt lat="43.55421" lon="6.79586">
        <ele>158.3</ele>
        <time>2025-10-24T06:18:29.000Z</time>
      </trkpt>
      <trkpt lat="43.55424" lon="6.79587">
        <ele>158.3</ele>
        <time>2025-10-24T06:18:30.000Z</time>
      </trkpt>
      <trkpt lat="43.55428" lon="6.79588">
        <ele>158.4</ele>
        <time>2025-10-24T06:18:31.000Z</time>
      </trkpt>
      <trkpt lat="43.55432" lon="6.79588">
        <ele>158.5</ele>
        <time>2025-10-24T06:18:32.000Z</time>
      </trkpt>
      <trkpt lat="43.55435" lon="6.79589">
        <ele>158.5</ele>
        <time>2025-10-24T06:18:33.000Z</time>
      </trkpt>
      <trkpt lat="43.55439" lon="6.79589">
        <ele>158.6</ele>
        <time>2025-10-24T06:18:34.000Z</time>
      </trkpt>
      <trkpt lat="43.55442" lon="6.7959">
        <ele>158.6</ele>
        <time>2025-10-24T06:18:35.000Z</time>
      </trkpt>
      <trkpt lat="43.55445" lon="6.7959">
        <ele>158.7</ele>
        <time>2025-10-24T06:18:36.000Z</time>
      </trkpt>
      <trkpt lat="43.55448" lon="6.79589">
        <ele>158.7</ele>
        <time>2025-10-24T06:18:37.000Z</time>
      </trkpt>
      <trkpt lat="43.55451" lon="6.79589">
        <ele>158.7</ele>
        <time>2025-10-24T06:18:38.000Z</time>
      </trkpt>
      <trkpt lat="43.55454" lon="6.79589">
        <ele>158.7</ele>
        <time>2025-10-24T06:18:39.000Z</time>
      </trkpt>
      <trkpt lat="43.55457" lon="6.79589">
        <ele>158.8</ele>
        <time>2025-10-24T06:18:40.000Z</time>
      </trkpt>
      <trkpt lat="43.55461" lon="6.79588">
        <ele>158.8</ele>
        <time>2025-10-24T06:18:41.000Z</time>
      </trkpt>
      <trkpt lat="43.55463" lon="6.79587">
        <ele>158.8</ele>
        <time>2025-10-24T06:18:42.000Z</time>
      </trkpt>
      <trkpt lat="43.55466" lon="6.79587">
        <ele>158.8</ele>
        <time>2025-10-24T06:18:43.000Z</time>
      </trkpt>
      <trkpt lat="43.55469" lon="6.79587">
        <ele>158.9</ele>
        <time>2025-10-24T06:18:44.000Z</time>
      </trkpt>
      <trkpt lat="43.55472" lon="6.79587">
        <ele>158.9</ele>
        <time>2025-10-24T06:18:45.000Z</time>
      </trkpt>
      <trkpt lat="43.55476" lon="6.79588">
        <ele>158.9</ele>
        <time>2025-10-24T06:18:46.000Z</time>
      </trkpt>
      <trkpt lat="43.55479" lon="6.79589">
        <ele>159</ele>
        <time>2025-10-24T06:18:47.000Z</time>
      </trkpt>
      <trkpt lat="43.55482" lon="6.7959">
        <ele>159</ele>
        <time>2025-10-24T06:18:48.000Z</time>
      </trkpt>
      <trkpt lat="43.55485" lon="6.7959">
        <ele>159</ele>
        <time>2025-10-24T06:18:49.000Z</time>
      </trkpt>
      <trkpt lat="43.55489" lon="6.7959">
        <ele>159.1</ele>
        <time>2025-10-24T06:18:50.000Z</time>
      </trkpt>
      <trkpt lat="43.55492" lon="6.7959">
        <ele>159.1</ele>
        <time>2025-10-24T06:18:51.000Z</time>
      </trkpt>
      <trkpt lat="43.55495" lon="6.7959">
        <ele>159.2</ele>
        <time>2025-10-24T06:18:52.000Z</time>
      </trkpt>
      <trkpt lat="43.55498" lon="6.79589">
        <ele>159.2</ele>
        <time>2025-10-24T06:18:53.000Z</time>
      </trkpt>
      <trkpt lat="43.55501" lon="6.79589">
        <ele>159.2</ele>
        <time>2025-10-24T06:18:54.000Z</time>
      </trkpt>
      <trkpt lat="43.55504" lon="6.79589">
        <ele>159.3</ele>
        <time>2025-10-24T06:18:55.000Z</time>
      </trkpt>
      <trkpt lat="43.55506" lon="6.79588">
        <ele>159.3</ele>
        <time>2025-10-24T06:18:56.000Z</time>
      </trkpt>
      <trkpt lat="43.55508" lon="6.79588">
        <ele>159.3</ele>
        <time>2025-10-24T06:18:57.000Z</time>
      </trkpt>
      <trkpt lat="43.5551" lon="6.79587">
        <ele>159.3</ele>
        <time>2025-10-24T06:18:58.000Z</time>
      </trkpt>
      <trkpt lat="43.55512" lon="6.79586">
        <ele>159.3</ele>
        <time>2025-10-24T06:18:59.000Z</time>
      </trkpt>
      <trkpt lat="43.55513" lon="6.79585">
        <ele>159.4</ele>
        <time>2025-10-24T06:19:00.000Z</time>
      </trkpt>
      <trkpt lat="43.55514" lon="6.79583">
        <ele>159.4</ele>
        <time>2025-10-24T06:19:01.000Z</time>
      </trkpt>
      <trkpt lat="43.55515" lon="6.79581">
        <ele>159.2</ele>
        <time>2025-10-24T06:19:02.000Z</time>
      </trkpt>
      <trkpt lat="43.55514" lon="6.79578">
        <ele>159.1</ele>
        <time>2025-10-24T06:19:03.000Z</time>
      </trkpt>
      <trkpt lat="43.55514" lon="6.79575">
        <ele>159</ele>
        <time>2025-10-24T06:19:04.000Z</time>
      </trkpt>
      <trkpt lat="43.55514" lon="6.79573">
        <ele>158.9</ele>
        <time>2025-10-24T06:19:05.000Z</time>
      </trkpt>
      <trkpt lat="43.55514" lon="6.79571">
        <ele>158.9</ele>
        <time>2025-10-24T06:19:06.000Z</time>
      </trkpt>
      <trkpt lat="43.55515" lon="6.7957">
        <ele>158.8</ele>
        <time>2025-10-24T06:19:07.000Z</time>
      </trkpt>
      <trkpt lat="43.55516" lon="6.79568">
        <ele>158.7</ele>
        <time>2025-10-24T06:19:08.000Z</time>
      </trkpt>
      <trkpt lat="43.55517" lon="6.79566">
        <ele>158.6</ele>
        <time>2025-10-24T06:19:09.000Z</time>
      </trkpt>
      <trkpt lat="43.55518" lon="6.79564">
        <ele>158.5</ele>
        <time>2025-10-24T06:19:10.000Z</time>
      </trkpt>
      <trkpt lat="43.55518" lon="6.79562">
        <ele>158.4</ele>
        <time>2025-10-24T06:19:11.000Z</time>
      </trkpt>
      <trkpt lat="43.55518" lon="6.79558">
        <ele>158.3</ele>
        <time>2025-10-24T06:19:12.000Z</time>
      </trkpt>
      <trkpt lat="43.55518" lon="6.79555">
        <ele>158.1</ele>
        <time>2025-10-24T06:19:13.000Z</time>
      </trkpt>
      <trkpt lat="43.55518" lon="6.79551">
        <ele>158</ele>
        <time>2025-10-24T06:19:14.000Z</time>
      </trkpt>
      <trkpt lat="43.55518" lon="6.79546">
        <ele>157.9</ele>
        <time>2025-10-24T06:19:15.000Z</time>
      </trkpt>
      <trkpt lat="43.55519" lon="6.79542">
        <ele>157.8</ele>
        <time>2025-10-24T06:19:16.000Z</time>
      </trkpt>
      <trkpt lat="43.55519" lon="6.79539">
        <ele>157.7</ele>
        <time>2025-10-24T06:19:17.000Z</time>
      </trkpt>
      <trkpt lat="43.55519" lon="6.79535">
        <ele>157.7</ele>
        <time>2025-10-24T06:19:18.000Z</time>
      </trkpt>
      <trkpt lat="43.55519" lon="6.79532">
        <ele>157.7</ele>
        <time>2025-10-24T06:19:19.000Z</time>
      </trkpt>
      <trkpt lat="43.5552" lon="6.79528">
        <ele>157.7</ele>
        <time>2025-10-24T06:19:20.000Z</time>
      </trkpt>
      <trkpt lat="43.55521" lon="6.79525">
        <ele>157.7</ele>
        <time>2025-10-24T06:19:21.000Z</time>
      </trkpt>
      <trkpt lat="43.55522" lon="6.79521">
        <ele>157.8</ele>
        <time>2025-10-24T06:19:22.000Z</time>
      </trkpt>
      <trkpt lat="43.55523" lon="6.79517">
        <ele>157.8</ele>
        <time>2025-10-24T06:19:23.000Z</time>
      </trkpt>
      <trkpt lat="43.55523" lon="6.79513">
        <ele>157.9</ele>
        <time>2025-10-24T06:19:24.000Z</time>
      </trkpt>
      <trkpt lat="43.55524" lon="6.79509">
        <ele>157.9</ele>
        <time>2025-10-24T06:19:25.000Z</time>
      </trkpt>
      <trkpt lat="43.55524" lon="6.79505">
        <ele>157.9</ele>
        <time>2025-10-24T06:19:26.000Z</time>
      </trkpt>
      <trkpt lat="43.55524" lon="6.79501">
        <ele>157.9</ele>
        <time>2025-10-24T06:19:27.000Z</time>
      </trkpt>
      <trkpt lat="43.55524" lon="6.79498">
        <ele>157.9</ele>
        <time>2025-10-24T06:19:28.000Z</time>
      </trkpt>
      <trkpt lat="43.55524" lon="6.79495">
        <ele>157.8</ele>
        <time>2025-10-24T06:19:29.000Z</time>
      </trkpt>
      <trkpt lat="43.55524" lon="6.79492">
        <ele>157.8</ele>
        <time>2025-10-24T06:19:30.000Z</time>
      </trkpt>
      <trkpt lat="43.55524" lon="6.7949">
        <ele>157.7</ele>
        <time>2025-10-24T06:19:31.000Z</time>
      </trkpt>
      <trkpt lat="43.55524" lon="6.79487">
        <ele>157.6</ele>
        <time>2025-10-24T06:19:32.000Z</time>
      </trkpt>
      <trkpt lat="43.55525" lon="6.79486">
        <ele>157.5</ele>
        <time>2025-10-24T06:19:33.000Z</time>
      </trkpt>
      <trkpt lat="43.55526" lon="6.79484">
        <ele>157.4</ele>
        <time>2025-10-24T06:19:34.000Z</time>
      </trkpt>
      <trkpt lat="43.55528" lon="6.79481">
        <ele>157.2</ele>
        <time>2025-10-24T06:19:35.000Z</time>
      </trkpt>
      <trkpt lat="43.55528" lon="6.79479">
        <ele>157</ele>
        <time>2025-10-24T06:19:36.000Z</time>
      </trkpt>
      <trkpt lat="43.55529" lon="6.79476">
        <ele>156.8</ele>
        <time>2025-10-24T06:19:37.000Z</time>
      </trkpt>
      <trkpt lat="43.55529" lon="6.79474">
        <ele>156.6</ele>
        <time>2025-10-24T06:19:38.000Z</time>
      </trkpt>
      <trkpt lat="43.5553" lon="6.79474">
        <ele>156.5</ele>
        <time>2025-10-24T06:19:39.000Z</time>
      </trkpt>
      <trkpt lat="43.5553" lon="6.79473">
        <ele>156.5</ele>
        <time>2025-10-24T06:19:40.000Z</time>
      </trkpt>
      <trkpt lat="43.5553" lon="6.79471">
        <ele>156.3</ele>
        <time>2025-10-24T06:19:41.000Z</time>
      </trkpt>
      <trkpt lat="43.55529" lon="6.79469">
        <ele>156</ele>
        <time>2025-10-24T06:19:42.000Z</time>
      </trkpt>
      <trkpt lat="43.55529" lon="6.79467">
        <ele>155.8</ele>
        <time>2025-10-24T06:19:43.000Z</time>
      </trkpt>
      <trkpt lat="43.55527" lon="6.79465">
        <ele>155.5</ele>
        <time>2025-10-24T06:19:44.000Z</time>
      </trkpt>
      <trkpt lat="43.55526" lon="6.79464">
        <ele>155.2</ele>
        <time>2025-10-24T06:19:45.000Z</time>
      </trkpt>
      <trkpt lat="43.55525" lon="6.79463">
        <ele>155</ele>
        <time>2025-10-24T06:19:46.000Z</time>
      </trkpt>
      <trkpt lat="43.55525" lon="6.79462">
        <ele>154.8</ele>
        <time>2025-10-24T06:19:47.000Z</time>
      </trkpt>
      <trkpt lat="43.55524" lon="6.79461">
        <ele>154.4</ele>
        <time>2025-10-24T06:19:48.000Z</time>
      </trkpt>
      <trkpt lat="43.55522" lon="6.79459">
        <ele>154.1</ele>
        <time>2025-10-24T06:19:49.000Z</time>
      </trkpt>
      <trkpt lat="43.5552" lon="6.79458">
        <ele>153.6</ele>
        <time>2025-10-24T06:19:50.000Z</time>
      </trkpt>
      <trkpt lat="43.55518" lon="6.79457">
        <ele>153.2</ele>
        <time>2025-10-24T06:19:51.000Z</time>
      </trkpt>
      <trkpt lat="43.55516" lon="6.79456">
        <ele>152.8</ele>
        <time>2025-10-24T06:19:52.000Z</time>
      </trkpt>
      <trkpt lat="43.55514" lon="6.79454">
        <ele>152.5</ele>
        <time>2025-10-24T06:19:53.000Z</time>
      </trkpt>
      <trkpt lat="43.55514" lon="6.79453">
        <ele>152.3</ele>
        <time>2025-10-24T06:19:54.000Z</time>
      </trkpt>
      <trkpt lat="43.55513" lon="6.79452">
        <ele>152.2</ele>
        <time>2025-10-24T06:19:55.000Z</time>
      </trkpt>
      <trkpt lat="43.55513" lon="6.7945">
        <ele>152</ele>
        <time>2025-10-24T06:19:56.000Z</time>
      </trkpt>
      <trkpt lat="43.55513" lon="6.79448">
        <ele>151.8</ele>
        <time>2025-10-24T06:19:57.000Z</time>
      </trkpt>
      <trkpt lat="43.55513" lon="6.79446">
        <ele>151.6</ele>
        <time>2025-10-24T06:19:58.000Z</time>
      </trkpt>
      <trkpt lat="43.55514" lon="6.79445">
        <ele>151.4</ele>
        <time>2025-10-24T06:19:59.000Z</time>
      </trkpt>
      <trkpt lat="43.55515" lon="6.79443">
        <ele>151.2</ele>
        <time>2025-10-24T06:20:00.000Z</time>
      </trkpt>
      <trkpt lat="43.55516" lon="6.79442">
        <ele>151</ele>
        <time>2025-10-24T06:20:01.000Z</time>
      </trkpt>
      <trkpt lat="43.55517" lon="6.79441">
        <ele>150.8</ele>
        <time>2025-10-24T06:20:02.000Z</time>
      </trkpt>
      <trkpt lat="43.55518" lon="6.7944">
        <ele>150.5</ele>
        <time>2025-10-24T06:20:03.000Z</time>
      </trkpt>
      <trkpt lat="43.55519" lon="6.79437">
        <ele>150.2</ele>
        <time>2025-10-24T06:20:04.000Z</time>
      </trkpt>
      <trkpt lat="43.5552" lon="6.79435">
        <ele>149.9</ele>
        <time>2025-10-24T06:20:05.000Z</time>
      </trkpt>
      <trkpt lat="43.55518" lon="6.79433">
        <ele>149.9</ele>
        <time>2025-10-24T06:20:06.000Z</time>
      </trkpt>
      <trkpt lat="43.55517" lon="6.79433">
        <ele>149.9</ele>
        <time>2025-10-24T06:20:07.000Z</time>
      </trkpt>
      <trkpt lat="43.55517" lon="6.79433">
        <ele>149.9</ele>
        <time>2025-10-24T06:20:08.000Z</time>
      </trkpt>
      <trkpt lat="43.55516" lon="6.79433">
        <ele>149.9</ele>
        <time>2025-10-24T06:20:09.000Z</time>
      </trkpt>
      <trkpt lat="43.55516" lon="6.79433">
        <ele>149.9</ele>
        <time>2025-10-24T06:20:10.000Z</time>
      </trkpt>
      <trkpt lat="43.55516" lon="6.79433">
        <ele>149.9</ele>
        <time>2025-10-24T06:20:11.000Z</time>
      </trkpt>
      <trkpt lat="43.55515" lon="6.79433">
        <ele>149.9</ele>
        <time>2025-10-24T06:20:12.000Z</time>
      </trkpt>
      <trkpt lat="43.55515" lon="6.79433">
        <ele>149.9</ele>
        <time>2025-10-24T06:20:13.000Z</time>
      </trkpt>
      <trkpt lat="43.55515" lon="6.79433">
        <ele>149.9</ele>
        <time>2025-10-24T06:20:14.000Z</time>
      </trkpt>
      <trkpt lat="43.55515" lon="6.79432">
        <ele>149.9</ele>
        <time>2025-10-24T06:20:15.000Z</time>
      </trkpt>
      <trkpt lat="43.55515" lon="6.79433">
        <ele>149.9</ele>
        <time>2025-10-24T06:20:16.000Z</time>
      </trkpt>
      <trkpt lat="43.55516" lon="6.79433">
        <ele>149.9</ele>
        <time>2025-10-24T06:20:17.000Z</time>
      </trkpt>
      <trkpt lat="43.55516" lon="6.79434">
        <ele>149.8</ele>
        <time>2025-10-24T06:20:18.000Z</time>
      </trkpt>
      <trkpt lat="43.55516" lon="6.79434">
        <ele>149.8</ele>
        <time>2025-10-24T06:20:19.000Z</time>
      </trkpt>
      <trkpt lat="43.55516" lon="6.79434">
        <ele>149.8</ele>
        <time>2025-10-24T06:20:20.000Z</time>
      </trkpt>
      <trkpt lat="43.55516" lon="6.79434">
        <ele>149.8</ele>
        <time>2025-10-24T06:20:21.000Z</time>
      </trkpt>
      <trkpt lat="43.55516" lon="6.79434">
        <ele>149.8</ele>
        <time>2025-10-24T06:20:22.000Z</time>
      </trkpt>
      <trkpt lat="43.55516" lon="6.79434">
        <ele>149.8</ele>
        <time>2025-10-24T06:20:23.000Z</time>
      </trkpt>
      <trkpt lat="43.55516" lon="6.79434">
        <ele>149.8</ele>
        <time>2025-10-24T06:20:24.000Z</time>
      </trkpt>
      <trkpt lat="43.55516" lon="6.79434">
        <ele>149.8</ele>
        <time>2025-10-24T06:20:25.000Z</time>
      </trkpt>
      <trkpt lat="43.55516" lon="6.79434">
        <ele>149.8</ele>
        <time>2025-10-24T06:20:26.000Z</time>
      </trkpt>
      <trkpt lat="43.55516" lon="6.79434">
        <ele>149.8</ele>
        <time>2025-10-24T06:20:27.000Z</time>
      </trkpt>
      <trkpt lat="43.55516" lon="6.79434">
        <ele>149.8</ele>
        <time>2025-10-24T06:20:28.000Z</time>
      </trkpt>
      <trkpt lat="43.55513" lon="6.79433">
        <ele>149.8</ele>
        <time>2025-10-24T06:20:29.000Z</time>
      </trkpt>
      <trkpt lat="43.55509" lon="6.79432">
        <ele>149.8</ele>
        <time>2025-10-24T06:20:30.000Z</time>
      </trkpt>
      <trkpt lat="43.55506" lon="6.79432">
        <ele>149.7</ele>
        <time>2025-10-24T06:20:31.000Z</time>
      </trkpt>
      <trkpt lat="43.55502" lon="6.79432">
        <ele>149.7</ele>
        <time>2025-10-24T06:20:32.000Z</time>
      </trkpt>
      <trkpt lat="43.55499" lon="6.79432">
        <ele>149.7</ele>
        <time>2025-10-24T06:20:33.000Z</time>
      </trkpt>
      <trkpt lat="43.55495" lon="6.79431">
        <ele>149.7</ele>
        <time>2025-10-24T06:20:34.000Z</time>
      </trkpt>
      <trkpt lat="43.55492" lon="6.79431">
        <ele>149.7</ele>
        <time>2025-10-24T06:20:35.000Z</time>
      </trkpt>
      <trkpt lat="43.55489" lon="6.79431">
        <ele>149.7</ele>
        <time>2025-10-24T06:20:36.000Z</time>
      </trkpt>
      <trkpt lat="43.55486" lon="6.79432">
        <ele>149.7</ele>
        <time>2025-10-24T06:20:37.000Z</time>
      </trkpt>
      <trkpt lat="43.55483" lon="6.79432">
        <ele>149.7</ele>
        <time>2025-10-24T06:20:38.000Z</time>
      </trkpt>
      <trkpt lat="43.5548" lon="6.79431">
        <ele>149.7</ele>
        <time>2025-10-24T06:20:39.000Z</time>
      </trkpt>
      <trkpt lat="43.55476" lon="6.79431">
        <ele>149.7</ele>
        <time>2025-10-24T06:20:40.000Z</time>
      </trkpt>
      <trkpt lat="43.55473" lon="6.79431">
        <ele>149.7</ele>
        <time>2025-10-24T06:20:41.000Z</time>
      </trkpt>
      <trkpt lat="43.55469" lon="6.79431">
        <ele>149.7</ele>
        <time>2025-10-24T06:20:42.000Z</time>
      </trkpt>
      <trkpt lat="43.55466" lon="6.7943">
        <ele>149.7</ele>
        <time>2025-10-24T06:20:43.000Z</time>
      </trkpt>
      <trkpt lat="43.55462" lon="6.7943">
        <ele>149.7</ele>
        <time>2025-10-24T06:20:44.000Z</time>
      </trkpt>
      <trkpt lat="43.55459" lon="6.7943">
        <ele>149.7</ele>
        <time>2025-10-24T06:20:45.000Z</time>
      </trkpt>
      <trkpt lat="43.55456" lon="6.79429">
        <ele>149.7</ele>
        <time>2025-10-24T06:20:46.000Z</time>
      </trkpt>
      <trkpt lat="43.55453" lon="6.79429">
        <ele>149.7</ele>
        <time>2025-10-24T06:20:47.000Z</time>
      </trkpt>
      <trkpt lat="43.5545" lon="6.79429">
        <ele>149.7</ele>
        <time>2025-10-24T06:20:48.000Z</time>
      </trkpt>
      <trkpt lat="43.55447" lon="6.79429">
        <ele>149.7</ele>
        <time>2025-10-24T06:20:49.000Z</time>
      </trkpt>
      <trkpt lat="43.55443" lon="6.7943">
        <ele>149.8</ele>
        <time>2025-10-24T06:20:50.000Z</time>
      </trkpt>
      <trkpt lat="43.5544" lon="6.79431">
        <ele>149.9</ele>
        <time>2025-10-24T06:20:51.000Z</time>
        <extensions>
          <visugpx:TrkExtension xmlns:visugpx="https://www.visugpx.com/editgpx/">
            <visugpx:node>1</visugpx:node>
            </visugpx:TrkExtension>
        </extensions>
      </trkpt>
    </trkseg>
  </trk>
</gpx>